createdAt,value
2023-02-11T00:00:45.005Z,0
2023-02-11T00:01:45.380Z,0
2023-02-11T00:02:47.924Z,0
2023-02-11T00:03:46.595Z,0
2023-02-11T00:04:46.964Z,0
2023-02-11T00:05:48.879Z,0
2023-02-11T00:06:49.523Z,0
2023-02-11T00:07:50.000Z,0
2023-02-11T00:08:50.513Z,0
2023-02-11T00:09:50.997Z,0
2023-02-11T00:10:51.785Z,0
2023-02-11T00:11:52.046Z,0
2023-02-11T00:12:52.526Z,0
2023-02-11T00:13:53.020Z,0
2023-02-11T00:14:54.058Z,0
2023-02-11T00:15:54.561Z,0
2023-02-11T00:16:55.819Z,0
2023-02-11T00:17:56.162Z,0
2023-02-11T00:18:56.649Z,0
2023-02-11T00:19:57.122Z,0
2023-02-11T00:20:57.677Z,0
2023-02-11T00:21:58.191Z,0
2023-02-11T00:22:58.710Z,0
2023-02-11T00:23:59.159Z,0
2023-02-11T00:24:59.633Z,0
2023-02-11T00:26:00.996Z,0
2023-02-11T00:27:01.490Z,0
2023-02-11T00:28:02.052Z,0
2023-02-11T00:29:02.473Z,0
2023-02-11T00:30:03.355Z,0
2023-02-11T00:31:34.139Z,0
2023-02-11T00:32:34.551Z,0
2023-02-11T00:33:34.930Z,0
2023-02-11T00:34:35.434Z,0
2023-02-11T00:35:36.539Z,0
2023-02-11T00:36:37.032Z,0
2023-02-11T00:37:37.617Z,0
2023-02-11T00:38:38.052Z,0
2023-02-11T00:39:38.520Z,0
2023-02-11T00:40:38.991Z,0
2023-02-11T00:41:39.414Z,0
2023-02-11T00:42:39.949Z,0
2023-02-11T00:43:40.601Z,0
2023-02-11T00:44:41.026Z,0
2023-02-11T00:45:42.196Z,0
2023-02-11T00:46:42.828Z,0
2023-02-11T00:47:43.177Z,0
2023-02-11T00:48:43.637Z,0
2023-02-11T00:49:44.173Z,0
2023-02-11T00:50:44.588Z,0
2023-02-11T00:51:45.026Z,0
2023-02-11T00:52:45.488Z,0
2023-02-11T00:53:45.884Z,0
2023-02-11T00:54:46.484Z,0
2023-02-11T00:55:48.022Z,0
2023-02-11T00:56:48.522Z,0
2023-02-11T00:57:49.076Z,0
2023-02-11T00:58:49.535Z,0
2023-02-11T00:59:50.235Z,0
2023-02-11T01:00:50.704Z,0
2023-02-11T01:01:51.350Z,0
2023-02-11T01:02:51.747Z,0
2023-02-11T01:03:52.183Z,0
2023-02-11T01:04:52.934Z,0
2023-02-11T01:05:54.261Z,0
2023-02-11T01:06:54.866Z,0
2023-02-11T01:07:56.223Z,0
2023-02-11T01:08:56.962Z,0
2023-02-11T01:09:57.415Z,0
2023-02-11T01:10:58.024Z,0
2023-02-11T01:11:58.514Z,0
2023-02-11T01:12:59.035Z,0
2023-02-11T01:13:59.558Z,0
2023-02-11T01:15:00.043Z,0
2023-02-11T01:16:01.392Z,0
2023-02-11T01:17:01.705Z,0
2023-02-11T01:18:02.256Z,0
2023-02-11T01:19:33.149Z,0
2023-02-11T01:20:33.877Z,0
2023-02-11T01:21:34.448Z,0
2023-02-11T01:22:34.979Z,0
2023-02-11T01:23:35.440Z,0
2023-02-11T01:24:35.888Z,0
2023-02-11T01:25:36.364Z,0
2023-02-11T01:26:36.836Z,0
2023-02-11T01:27:38.442Z,0
2023-02-11T01:28:38.954Z,0
2023-02-11T01:29:39.540Z,0
2023-02-11T01:30:40.021Z,0
2023-02-11T01:31:40.929Z,0
2023-02-11T01:32:41.391Z,0
2023-02-11T01:33:41.854Z,0
2023-02-11T01:34:42.598Z,0
2023-02-11T01:35:44.008Z,0
2023-02-11T01:36:44.754Z,0
2023-02-11T01:37:46.009Z,0
2023-02-11T01:38:46.625Z,0
2023-02-11T01:39:47.168Z,0
2023-02-11T01:40:47.594Z,0
2023-02-11T01:41:48.248Z,0
2023-02-11T01:42:50.976Z,0
2023-02-11T01:43:49.223Z,0
2023-02-11T01:44:49.657Z,0
2023-02-11T01:45:51.440Z,0
2023-02-11T01:46:51.621Z,0
2023-02-11T01:47:51.942Z,0
2023-02-11T01:48:52.601Z,0
2023-02-11T01:49:52.979Z,0
2023-02-11T01:50:53.771Z,0
2023-02-11T01:51:54.439Z,0
2023-02-11T01:52:54.843Z,0
2023-02-11T01:53:55.379Z,0
2023-02-11T01:54:55.837Z,0
2023-02-11T01:55:57.496Z,0
2023-02-11T01:56:57.968Z,0
2023-02-11T01:57:58.658Z,0
2023-02-11T01:58:59.365Z,0
2023-02-11T01:59:59.848Z,0
2023-02-11T02:01:00.494Z,0
2023-02-11T02:02:01.111Z,0
2023-02-11T02:03:01.477Z,0
2023-02-11T02:04:32.838Z,0
2023-02-11T02:05:33.318Z,0
2023-02-11T02:06:34.841Z,0
2023-02-11T02:07:35.345Z,0
2023-02-11T02:08:35.750Z,0
2023-02-11T02:09:36.279Z,0
2023-02-11T02:10:36.733Z,0
2023-02-11T02:11:37.283Z,0
2023-02-11T02:12:37.766Z,0
2023-02-11T02:13:38.403Z,0
2023-02-11T02:14:38.932Z,0
2023-02-11T02:15:39.415Z,0
2023-02-11T02:16:41.148Z,0
2023-02-11T02:17:41.550Z,0
2023-02-11T02:18:41.953Z,0
2023-02-11T02:19:42.698Z,0
2023-02-11T02:20:43.154Z,0
2023-02-11T02:21:43.731Z,0
2023-02-11T02:22:44.277Z,0
2023-02-11T02:23:44.702Z,0
2023-02-11T02:24:45.196Z,0
2023-02-11T02:25:45.645Z,0
2023-02-11T02:26:46.841Z,0
2023-02-11T02:27:47.343Z,0
2023-02-11T02:28:47.750Z,0
2023-02-11T02:29:48.430Z,0
2023-02-11T02:30:48.941Z,0
2023-02-11T02:31:49.350Z,0
2023-02-11T02:32:50.099Z,0
2023-02-11T02:33:51.226Z,0
2023-02-11T02:34:51.836Z,0
2023-02-11T02:35:52.331Z,0
2023-02-11T02:36:53.714Z,0
2023-02-11T02:37:54.226Z,0
2023-02-11T02:38:54.649Z,0
2023-02-11T02:39:55.188Z,0
2023-02-11T02:40:55.636Z,0
2023-02-11T02:41:56.053Z,0
2023-02-11T02:42:56.748Z,0
2023-02-11T02:43:57.183Z,0
2023-02-11T02:44:57.780Z,0
2023-02-11T02:45:58.499Z,0
2023-02-11T02:46:59.930Z,0
2023-02-11T02:48:00.344Z,0
2023-02-11T02:49:00.778Z,0
2023-02-11T02:50:01.707Z,0
2023-02-11T02:51:32.366Z,0
2023-02-11T02:52:32.946Z,0
2023-02-11T02:53:33.319Z,0
2023-02-11T02:54:33.729Z,0
2023-02-11T02:55:34.196Z,0
2023-02-11T02:56:35.475Z,0
2023-02-11T02:57:35.960Z,0
2023-02-11T02:58:36.400Z,0
2023-02-11T02:59:36.806Z,0
2023-02-11T03:00:37.325Z,0
2023-02-11T03:01:37.684Z,0
2023-02-11T03:02:38.103Z,0
2023-02-11T03:03:38.529Z,0
2023-02-11T03:04:39.015Z,0
2023-02-11T03:05:39.513Z,0
2023-02-11T03:06:40.752Z,0
2023-02-11T03:07:41.787Z,0
2023-02-11T03:08:42.232Z,0
2023-02-11T03:09:42.617Z,0
2023-02-11T03:10:43.195Z,0
2023-02-11T03:11:44.471Z,0
2023-02-11T03:12:44.969Z,0
2023-02-11T03:13:45.348Z,0
2023-02-11T03:14:45.761Z,0
2023-02-11T03:15:46.195Z,0
2023-02-11T03:16:46.620Z,0
2023-02-11T03:17:47.797Z,0
2023-02-11T03:18:48.237Z,0
2023-02-11T03:19:48.664Z,0
2023-02-11T03:20:49.210Z,0
2023-02-11T03:21:49.610Z,0
2023-02-11T03:22:50.194Z,0
2023-02-11T03:23:50.648Z,0
2023-02-11T03:24:51.048Z,0
2023-02-11T03:25:51.879Z,0
2023-02-11T03:26:52.712Z,0
2023-02-11T03:27:54.206Z,0
2023-02-11T03:28:54.479Z,0
2023-02-11T03:29:54.890Z,0
2023-02-11T03:30:55.458Z,0
2023-02-11T03:31:55.907Z,0
2023-02-11T03:32:56.460Z,0
2023-02-11T03:33:56.868Z,0
2023-02-11T03:34:57.315Z,0
2023-02-11T03:35:57.707Z,0
2023-02-11T03:36:58.874Z,0
2023-02-11T03:37:59.329Z,0
2023-02-11T03:38:59.879Z,0
2023-02-11T03:40:00.308Z,0
2023-02-11T03:41:31.512Z,0
2023-02-11T03:42:31.970Z,0
2023-02-11T03:43:32.511Z,0
2023-02-11T03:44:32.977Z,0
2023-02-11T03:45:33.448Z,0
2023-02-11T03:46:34.494Z,0
2023-02-11T03:47:34.913Z,0
2023-02-11T03:48:35.440Z,0
2023-02-11T03:49:35.884Z,0
2023-02-11T03:50:36.329Z,0
2023-02-11T03:51:36.902Z,0
2023-02-11T03:52:37.322Z,0
2023-02-11T03:53:37.879Z,0
2023-02-11T03:54:38.297Z,0
2023-02-11T03:55:38.725Z,0
2023-02-11T03:56:39.997Z,0
2023-02-11T03:57:40.653Z,0
2023-02-11T03:58:41.156Z,0
2023-02-11T03:59:41.584Z,0
2023-02-11T04:00:42.052Z,0
2023-02-11T04:01:42.478Z,0
2023-02-11T04:02:42.890Z,0
2023-02-11T04:03:43.351Z,0
2023-02-11T04:04:43.766Z,0
2023-02-11T04:05:44.817Z,0
2023-02-11T04:06:45.988Z,0
2023-02-11T04:07:46.406Z,0
2023-02-11T04:08:47.114Z,0
2023-02-11T04:09:47.510Z,0
2023-02-11T04:10:47.994Z,0
2023-02-11T04:11:49.204Z,0
2023-02-11T04:12:49.658Z,0
2023-02-11T04:13:50.174Z,0
2023-02-11T04:14:50.602Z,0
2023-02-11T04:15:51.426Z,0
2023-02-11T04:16:52.518Z,0
2023-02-11T04:17:52.919Z,0
2023-02-11T04:18:53.485Z,0
2023-02-11T04:19:53.946Z,0
2023-02-11T04:20:54.469Z,0
2023-02-11T04:21:54.964Z,0
2023-02-11T04:22:55.420Z,0
2023-02-11T04:23:55.980Z,0
2023-02-11T04:24:56.405Z,0
2023-02-11T04:25:56.971Z,0
2023-02-11T04:26:58.289Z,0
2023-02-11T04:27:58.964Z,0
2023-02-11T04:29:30.779Z,0
2023-02-11T04:30:31.413Z,0
2023-02-11T04:31:31.946Z,0
2023-02-11T04:32:32.368Z,0
2023-02-11T04:33:32.938Z,0
2023-02-11T04:34:33.436Z,0
2023-02-11T04:35:34.012Z,0
2023-02-11T04:36:34.472Z,0
2023-02-11T04:37:35.733Z,0
2023-02-11T04:38:36.256Z,0
2023-02-11T04:39:36.681Z,0
2023-02-11T04:40:37.262Z,0
2023-02-11T04:41:38.228Z,0
2023-02-11T04:42:38.822Z,0
2023-02-11T04:43:39.325Z,0
2023-02-11T04:44:39.785Z,0
2023-02-11T04:45:40.596Z,0
2023-02-11T04:46:41.014Z,0
2023-02-11T04:47:42.366Z,0
2023-02-11T04:48:42.804Z,0
2023-02-11T04:49:43.390Z,0
2023-02-11T04:50:43.881Z,0
2023-02-11T04:51:44.317Z,0
2023-02-11T04:52:44.885Z,0
2023-02-11T04:53:45.391Z,0
2023-02-11T04:54:45.951Z,0
2023-02-11T04:55:46.376Z,0
2023-02-11T04:56:46.871Z,0
2023-02-11T04:57:48.218Z,0
2023-02-11T04:58:48.720Z,0
2023-02-11T04:59:49.256Z,0
2023-02-11T05:00:49.698Z,0
2023-02-11T05:01:51.019Z,0
2023-02-11T05:02:51.466Z,0
2023-02-11T05:03:51.965Z,0
2023-02-11T05:04:52.570Z,0
2023-02-11T05:05:53.437Z,0
2023-02-11T05:06:53.705Z,0
2023-02-11T05:07:54.711Z,0
2023-02-11T05:08:55.211Z,0
2023-02-11T05:09:55.787Z,0
2023-02-11T05:10:56.278Z,0
2023-02-11T05:11:57.892Z,0
2023-02-11T05:12:58.336Z,0
2023-02-11T05:13:58.928Z,0
2023-02-11T05:14:59.365Z,0
2023-02-11T05:16:30.440Z,0
2023-02-11T05:17:31.519Z,0
2023-02-11T05:18:31.993Z,0
2023-02-11T05:19:32.483Z,0
2023-02-11T05:20:32.922Z,0
2023-02-11T05:21:33.536Z,0
2023-02-11T05:22:33.971Z,0
2023-02-11T05:23:34.672Z,0
2023-02-11T05:24:35.129Z,0
2023-02-11T05:25:35.540Z,0
2023-02-11T05:26:36.849Z,0
2023-02-11T05:27:38.029Z,0
2023-02-11T05:28:38.485Z,0
2023-02-11T05:29:39.113Z,0
2023-02-11T05:30:39.622Z,0
2023-02-11T05:31:40.024Z,0
2023-02-11T05:32:40.845Z,0
2023-02-11T05:33:41.326Z,0
2023-02-11T05:34:41.953Z,0
2023-02-11T05:35:42.433Z,0
2023-02-11T05:36:42.961Z,0
2023-02-11T05:37:44.014Z,0
2023-02-11T05:38:44.632Z,0
2023-02-11T05:39:45.169Z,0
2023-02-11T05:40:45.632Z,0
2023-02-11T05:41:46.210Z,0
2023-02-11T05:42:46.670Z,0
2023-02-11T05:43:47.132Z,0
2023-02-11T05:44:50.247Z,0
2023-02-11T05:45:48.559Z,0
2023-02-11T05:46:48.798Z,0
2023-02-11T05:47:50.038Z,0
2023-02-11T05:48:50.529Z,0
2023-02-11T05:49:51.021Z,0
2023-02-11T05:50:51.669Z,0
2023-02-11T05:51:52.174Z,0
2023-02-11T05:52:52.786Z,0
2023-02-11T05:53:53.282Z,0
2023-02-11T05:54:53.699Z,0
2023-02-11T05:55:54.251Z,0
2023-02-11T05:56:54.746Z,0
2023-02-11T05:57:56.008Z,0
2023-02-11T05:58:56.447Z,0
2023-02-11T05:59:56.976Z,0
2023-02-11T06:00:57.515Z,0
2023-02-11T06:01:58.069Z,0
2023-02-11T06:02:58.732Z,0
2023-02-11T06:04:29.670Z,0
2023-02-11T06:05:30.980Z,0
2023-02-11T06:06:31.393Z,0
2023-02-11T06:07:32.984Z,0
2023-02-11T06:08:33.491Z,0
2023-02-11T06:09:33.986Z,0
2023-02-11T06:10:34.461Z,0
2023-02-11T06:11:34.931Z,0
2023-02-11T06:12:35.445Z,0
2023-02-11T06:13:35.993Z,0
2023-02-11T06:14:36.627Z,0
2023-02-11T06:15:37.137Z,0
2023-02-11T06:16:37.590Z,0
2023-02-11T06:17:38.965Z,0
2023-02-11T06:18:39.668Z,0
2023-02-11T06:19:40.078Z,0
2023-02-11T06:20:40.572Z,0
2023-02-11T06:21:44.252Z,0
2023-02-11T06:22:41.461Z,0
2023-02-11T06:23:42.034Z,0
2023-02-11T06:25:00.237Z,4
2023-02-11T06:25:42.966Z,0
2023-02-11T06:26:43.578Z,4
2023-02-11T06:27:44.975Z,0
2023-02-11T06:28:45.620Z,4
2023-02-11T06:29:46.030Z,4
2023-02-11T06:30:46.502Z,4
2023-02-11T06:31:47.180Z,4
2023-02-11T06:32:47.830Z,8
2023-02-11T06:33:48.119Z,4
2023-02-11T06:34:48.529Z,8
2023-02-11T06:35:49.307Z,8
2023-02-11T06:36:49.530Z,12
2023-02-11T06:37:50.470Z,12
2023-02-11T06:38:50.993Z,16
2023-02-11T06:39:51.408Z,16
2023-02-11T06:40:51.898Z,20
2023-02-11T06:41:53.205Z,24
2023-02-11T06:42:53.724Z,20
2023-02-11T06:43:54.208Z,24
2023-02-11T06:44:54.656Z,28
2023-02-11T06:45:55.197Z,32
2023-02-11T06:46:55.645Z,36
2023-02-11T06:47:56.221Z,36
2023-02-11T06:48:57.734Z,40
2023-02-11T06:49:58.163Z,48
2023-02-11T06:51:29.365Z,48
2023-02-11T06:52:29.795Z,56
2023-02-11T06:53:30.406Z,56
2023-02-11T06:54:30.916Z,60
2023-02-11T06:55:31.334Z,64
2023-02-11T06:56:31.892Z,68
2023-02-11T06:57:32.400Z,72
2023-02-11T06:58:33.848Z,76
2023-02-11T06:59:34.378Z,80
2023-02-11T07:00:34.760Z,88
2023-02-11T07:01:35.313Z,88
2023-02-11T07:02:35.682Z,92
2023-02-11T07:03:36.297Z,96
2023-02-11T07:04:36.745Z,100
2023-02-11T07:05:37.245Z,104
2023-02-11T07:06:37.677Z,104
2023-02-11T07:07:38.137Z,112
2023-02-11T07:08:39.318Z,116
2023-02-11T07:09:39.765Z,120
2023-02-11T07:10:40.321Z,128
2023-02-11T07:11:40.829Z,128
2023-02-11T07:12:41.285Z,132
2023-02-11T07:13:41.896Z,132
2023-02-11T07:14:42.394Z,136
2023-02-11T07:15:42.931Z,140
2023-02-11T07:16:43.362Z,144
2023-02-11T07:17:43.789Z,156
2023-02-11T07:18:45.228Z,164
2023-02-11T07:19:45.736Z,180
2023-02-11T07:20:46.270Z,192
2023-02-11T07:21:46.775Z,208
2023-02-11T07:22:47.291Z,228
2023-02-11T07:23:47.755Z,228
2023-02-11T07:24:48.241Z,228
2023-02-11T07:25:49.330Z,236
2023-02-11T07:26:49.392Z,236
2023-02-11T07:27:49.957Z,244
2023-02-11T07:28:51.198Z,256
2023-02-11T07:29:51.775Z,236
2023-02-11T07:30:52.450Z,216
2023-02-11T07:31:52.895Z,204
2023-02-11T07:32:53.413Z,212
2023-02-11T07:33:53.856Z,252
2023-02-11T07:34:54.472Z,284
2023-02-11T07:35:54.885Z,300
2023-02-11T07:36:55.385Z,272
2023-02-11T07:37:56.002Z,260
2023-02-11T07:38:57.213Z,324
2023-02-11T07:39:58.226Z,328
2023-02-11T07:41:28.803Z,328
2023-02-11T07:42:30.270Z,340
2023-02-11T07:43:30.769Z,352
2023-02-11T07:44:31.380Z,356
2023-02-11T07:45:31.795Z,368
2023-02-11T07:46:32.430Z,376
2023-02-11T07:47:32.764Z,388
2023-02-11T07:48:34.033Z,396
2023-02-11T07:49:34.529Z,400
2023-02-11T07:50:35.008Z,400
2023-02-11T07:51:35.518Z,404
2023-02-11T07:52:35.969Z,408
2023-02-11T07:53:36.564Z,412
2023-02-11T07:54:37.260Z,412
2023-02-11T07:55:37.548Z,416
2023-02-11T07:56:38.108Z,416
2023-02-11T07:57:38.556Z,420
2023-02-11T07:58:40.054Z,424
2023-02-11T07:59:40.740Z,424
2023-02-11T08:00:41.357Z,424
2023-02-11T08:01:41.828Z,420
2023-02-11T08:02:42.259Z,420
2023-02-11T08:03:42.893Z,424
2023-02-11T08:04:43.304Z,380
2023-02-11T08:05:44.701Z,352
2023-02-11T08:06:45.208Z,388
2023-02-11T08:07:45.654Z,404
2023-02-11T08:08:46.998Z,444
2023-02-11T08:09:47.511Z,448
2023-02-11T08:10:48.358Z,444
2023-02-11T08:11:49.224Z,456
2023-02-11T08:12:49.687Z,468
2023-02-11T08:13:50.171Z,476
2023-02-11T08:14:50.607Z,488
2023-02-11T08:15:51.518Z,496
2023-02-11T08:16:51.762Z,496
2023-02-11T08:17:52.598Z,500
2023-02-11T08:18:53.988Z,500
2023-02-11T08:19:54.631Z,508
2023-02-11T08:20:55.271Z,512
2023-02-11T08:21:55.826Z,516
2023-02-11T08:22:56.562Z,520
2023-02-11T08:23:57.017Z,524
2023-02-11T08:25:28.961Z,524
2023-02-11T08:26:29.599Z,520
2023-02-11T08:27:30.176Z,524
2023-02-11T08:28:31.559Z,532
2023-02-11T08:29:33.012Z,532
2023-02-11T08:30:33.525Z,536
2023-02-11T08:31:34.460Z,536
2023-02-11T08:32:35.482Z,540
2023-02-11T08:33:35.985Z,540
2023-02-11T08:34:36.674Z,540
2023-02-11T08:35:37.960Z,540
2023-02-11T08:36:39.566Z,540
2023-02-11T08:37:40.107Z,540
2023-02-11T08:38:41.490Z,544
2023-02-11T08:39:42.951Z,548
2023-02-11T08:40:43.403Z,548
2023-02-11T08:41:45.059Z,548
2023-02-11T08:42:45.563Z,540
2023-02-11T08:43:46.182Z,532
2023-02-11T08:44:46.717Z,552
2023-02-11T08:45:47.497Z,556
2023-02-11T08:46:48.726Z,560
2023-02-11T08:47:49.426Z,560
2023-02-11T08:48:51.003Z,560
2023-02-11T08:49:51.491Z,560
2023-02-11T08:50:52.126Z,560
2023-02-11T08:51:52.617Z,560
2023-02-11T08:52:53.203Z,556
2023-02-11T08:53:53.739Z,568
2023-02-11T08:54:54.212Z,572
2023-02-11T08:55:54.754Z,572
2023-02-11T08:56:55.250Z,576
2023-02-11T08:57:56.518Z,572
2023-02-11T08:59:28.182Z,572
2023-02-11T09:00:29.545Z,572
2023-02-11T09:01:30.137Z,572
2023-02-11T09:02:31.281Z,572
2023-02-11T09:03:31.772Z,572
2023-02-11T09:04:33.197Z,572
2023-02-11T09:05:33.755Z,572
2023-02-11T09:06:34.969Z,564
2023-02-11T09:07:35.612Z,568
2023-02-11T09:08:36.043Z,556
2023-02-11T09:09:37.336Z,556
2023-02-11T09:10:37.862Z,572
2023-02-11T09:11:38.988Z,576
2023-02-11T09:12:39.477Z,576
2023-02-11T09:13:39.904Z,576
2023-02-11T09:14:40.880Z,580
2023-02-11T09:15:41.950Z,576
2023-02-11T09:16:43.470Z,576
2023-02-11T09:17:43.926Z,580
2023-02-11T09:18:44.512Z,576
2023-02-11T09:19:45.705Z,580
2023-02-11T09:20:46.132Z,580
2023-02-11T09:21:46.757Z,584
2023-02-11T09:22:47.204Z,584
2023-02-11T09:23:47.971Z,584
2023-02-11T09:24:48.253Z,584
2023-02-11T09:25:49.067Z,588
2023-02-11T09:26:49.359Z,588
2023-02-11T09:27:49.823Z,592
2023-02-11T09:28:50.276Z,596
2023-02-11T09:29:51.801Z,596
2023-02-11T09:30:52.677Z,600
2023-02-11T09:31:52.970Z,568
2023-02-11T09:32:53.624Z,592
2023-02-11T09:33:53.936Z,592
2023-02-11T09:34:55.267Z,588
2023-02-11T09:35:55.726Z,588
2023-02-11T09:36:56.285Z,580
2023-02-11T09:38:27.116Z,584
2023-02-11T09:39:28.555Z,588
2023-02-11T09:40:29.128Z,580
2023-02-11T09:41:29.674Z,588
2023-02-11T09:42:30.230Z,576
2023-02-11T09:43:30.671Z,584
2023-02-11T09:44:31.206Z,584
2023-02-11T09:45:31.644Z,592
2023-02-11T09:46:32.320Z,592
2023-02-11T09:47:32.729Z,592
2023-02-11T09:48:33.280Z,592
2023-02-11T09:49:34.450Z,580
2023-02-11T09:50:34.925Z,592
2023-02-11T09:51:35.420Z,592
2023-02-11T09:52:35.949Z,596
2023-02-11T09:53:36.455Z,600
2023-02-11T09:54:37.046Z,600
2023-02-11T09:55:37.477Z,596
2023-02-11T09:56:37.927Z,604
2023-02-11T09:57:38.438Z,604
2023-02-11T09:58:39.480Z,604
2023-02-11T09:59:39.969Z,608
2023-02-11T10:00:41.434Z,608
2023-02-11T10:01:41.951Z,608
2023-02-11T10:02:42.434Z,604
2023-02-11T10:03:42.923Z,608
2023-02-11T10:04:43.523Z,604
2023-02-11T10:05:43.954Z,604
2023-02-11T10:06:44.459Z,608
2023-02-11T10:07:44.917Z,608
2023-02-11T10:08:45.460Z,608
2023-02-11T10:09:46.845Z,608
2023-02-11T10:10:48.184Z,608
2023-02-11T10:11:48.697Z,608
2023-02-11T10:12:49.214Z,604
2023-02-11T10:13:49.720Z,612
2023-02-11T10:14:50.274Z,612
2023-02-11T10:15:50.825Z,612
2023-02-11T10:16:51.232Z,608
2023-02-11T10:17:51.744Z,608
2023-02-11T10:18:52.231Z,608
2023-02-11T10:19:53.454Z,608
2023-02-11T10:20:53.914Z,608
2023-02-11T10:21:54.548Z,608
2023-02-11T10:22:54.958Z,604
2023-02-11T10:23:55.539Z,616
2023-02-11T10:25:26.730Z,616
2023-02-11T10:26:27.057Z,616
2023-02-11T10:27:27.633Z,620
2023-02-11T10:28:29.031Z,628
2023-02-11T10:29:29.590Z,624
2023-02-11T10:30:30.766Z,616
2023-02-11T10:31:31.418Z,632
2023-02-11T10:32:31.753Z,628
2023-02-11T10:33:32.213Z,636
2023-02-11T10:34:32.766Z,628
2023-02-11T10:35:33.290Z,636
2023-02-11T10:36:33.838Z,544
2023-02-11T10:37:34.309Z,628
2023-02-11T10:38:34.751Z,628
2023-02-11T10:39:35.964Z,632
2023-02-11T10:40:36.467Z,628
2023-02-11T10:41:37.975Z,628
2023-02-11T10:42:38.419Z,640
2023-02-11T10:43:38.920Z,628
2023-02-11T10:44:39.379Z,648
2023-02-11T10:45:39.791Z,648
2023-02-11T10:46:40.811Z,652
2023-02-11T10:47:41.161Z,648
2023-02-11T10:48:41.725Z,652
2023-02-11T10:49:42.990Z,656
2023-02-11T10:50:43.455Z,656
2023-02-11T10:51:43.956Z,660
2023-02-11T10:52:44.470Z,660
2023-02-11T10:53:45.019Z,664
2023-02-11T10:54:45.471Z,668
2023-02-11T10:55:46.124Z,668
2023-02-11T10:56:46.576Z,668
2023-02-11T10:57:47.063Z,672
2023-02-11T10:58:48.243Z,676
2023-02-11T10:59:49.479Z,680
2023-02-11T11:00:50.227Z,680
2023-02-11T11:01:50.406Z,680
2023-02-11T11:02:50.790Z,684
2023-02-11T11:03:51.358Z,680
2023-02-11T11:04:51.957Z,680
2023-02-11T11:05:52.353Z,684
2023-02-11T11:06:52.876Z,684
2023-02-11T11:07:53.335Z,688
2023-02-11T11:08:53.922Z,692
2023-02-11T11:09:54.988Z,688
2023-02-11T11:11:26.082Z,692
2023-02-11T11:12:26.475Z,696
2023-02-11T11:13:26.978Z,696
2023-02-11T11:14:27.429Z,696
2023-02-11T11:15:27.891Z,696
2023-02-11T11:16:28.468Z,700
2023-02-11T11:17:28.839Z,700
2023-02-11T11:18:29.360Z,700
2023-02-11T11:19:29.896Z,704
2023-02-11T11:20:31.262Z,700
2023-02-11T11:21:31.775Z,704
2023-02-11T11:22:32.223Z,704
2023-02-11T11:23:32.763Z,708
2023-02-11T11:24:33.298Z,708
2023-02-11T11:25:33.760Z,712
2023-02-11T11:26:34.294Z,716
2023-02-11T11:27:34.775Z,720
2023-02-11T11:28:36.052Z,724
2023-02-11T11:29:36.474Z,724
2023-02-11T11:30:37.775Z,732
2023-02-11T11:31:38.309Z,740
2023-02-11T11:32:38.670Z,744
2023-02-11T11:33:39.188Z,748
2023-02-11T11:34:39.622Z,740
2023-02-11T11:35:40.115Z,748
2023-02-11T11:36:40.830Z,740
2023-02-11T11:37:41.301Z,748
2023-02-11T11:38:41.795Z,752
2023-02-11T11:39:42.260Z,748
2023-02-11T11:40:43.703Z,764
2023-02-11T11:41:44.200Z,772
2023-02-11T11:42:44.652Z,784
2023-02-11T11:43:45.162Z,800
2023-02-11T11:44:45.585Z,740
2023-02-11T11:45:46.090Z,832
2023-02-11T11:46:46.662Z,860
2023-02-11T11:47:47.067Z,904
2023-02-11T11:48:47.617Z,804
2023-02-11T11:49:48.032Z,1012
2023-02-11T11:50:49.632Z,1036
2023-02-11T11:51:49.709Z,1124
2023-02-11T11:52:50.295Z,1220
2023-02-11T11:53:50.800Z,1284
2023-02-11T11:54:51.256Z,1320
2023-02-11T11:55:51.779Z,1420
2023-02-11T11:56:52.261Z,1388
2023-02-11T11:57:52.741Z,1432
2023-02-11T11:58:53.305Z,1464
2023-02-11T11:59:53.725Z,1336
2023-02-11T12:01:25.534Z,1556
2023-02-11T12:02:26.060Z,1488
2023-02-11T12:03:26.698Z,1492
2023-02-11T12:04:27.093Z,1420
2023-02-11T12:05:27.500Z,1376
2023-02-11T12:06:28.066Z,1488
2023-02-11T12:07:28.489Z,1516
2023-02-11T12:08:29.012Z,1472
2023-02-11T12:09:29.574Z,1388
2023-02-11T12:10:30.935Z,1364
2023-02-11T12:11:31.473Z,1384
2023-02-11T12:12:31.885Z,1352
2023-02-11T12:13:32.449Z,1284
2023-02-11T12:14:32.919Z,1208
2023-02-11T12:15:33.407Z,1188
2023-02-11T12:16:33.998Z,1180
2023-02-11T12:17:34.363Z,1188
2023-02-11T12:18:34.847Z,1184
2023-02-11T12:19:35.332Z,1172
2023-02-11T12:20:36.428Z,1184
2023-02-11T12:21:36.988Z,1184
2023-02-11T12:22:37.403Z,1176
2023-02-11T12:23:37.793Z,1176
2023-02-11T12:24:39.005Z,1160
2023-02-11T12:25:40.515Z,1188
2023-02-11T12:26:40.976Z,1208
2023-02-11T12:27:41.365Z,1220
2023-02-11T12:28:42.433Z,1228
2023-02-11T12:29:43.102Z,1268
2023-02-11T12:30:44.489Z,1288
2023-02-11T12:31:45.110Z,1284
2023-02-11T12:32:45.504Z,1296
2023-02-11T12:33:45.942Z,1276
2023-02-11T12:34:46.435Z,1268
2023-02-11T12:35:46.947Z,1320
2023-02-11T12:36:47.590Z,1328
2023-02-11T12:37:48.142Z,1364
2023-02-11T12:38:48.589Z,1372
2023-02-11T12:39:49.117Z,1392
2023-02-11T12:40:50.640Z,1420
2023-02-11T12:41:50.901Z,1440
2023-02-11T12:42:51.458Z,1460
2023-02-11T12:43:51.891Z,1480
2023-02-11T12:44:52.424Z,1504
2023-02-11T12:45:53.098Z,1532
2023-02-11T12:46:53.508Z,1560
2023-02-11T12:47:54.492Z,1612
2023-02-11T12:49:25.302Z,1636
2023-02-11T12:50:25.887Z,1636
2023-02-11T12:51:27.192Z,1668
2023-02-11T12:52:27.611Z,1668
2023-02-11T12:53:28.251Z,1700
2023-02-11T12:54:28.662Z,1748
2023-02-11T12:55:29.077Z,1804
2023-02-11T12:56:29.744Z,1828
2023-02-11T12:57:30.943Z,1860
2023-02-11T12:58:44.037Z,1876
2023-02-11T12:59:32.788Z,1900
2023-02-11T13:00:33.331Z,1928
2023-02-11T13:01:34.947Z,1952
2023-02-11T13:02:35.454Z,1904
2023-02-11T13:03:35.842Z,1976
2023-02-11T13:04:36.300Z,2080
2023-02-11T13:05:37.795Z,2112
2023-02-11T13:06:38.281Z,2140
2023-02-11T13:07:38.722Z,2176
2023-02-11T13:08:39.330Z,2220
2023-02-11T13:09:39.890Z,2268
2023-02-11T13:10:41.472Z,2308
2023-02-11T13:11:42.981Z,2332
2023-02-11T13:12:43.636Z,2376
2023-02-11T13:13:44.245Z,2408
2023-02-11T13:14:44.853Z,2436
2023-02-11T13:15:45.444Z,2464
2023-02-11T13:16:46.090Z,2524
2023-02-11T13:17:47.229Z,2552
2023-02-11T13:18:47.752Z,2596
2023-02-11T13:19:48.340Z,2668
2023-02-11T13:20:49.813Z,2708
2023-02-11T13:21:49.996Z,2744
2023-02-11T13:22:50.679Z,2780
2023-02-11T13:23:51.232Z,2808
2023-02-11T13:24:52.010Z,2884
2023-02-11T13:25:52.599Z,2864
2023-02-11T13:26:53.243Z,2964
2023-02-11T13:27:54.185Z,3060
2023-02-11T13:29:25.112Z,3088
2023-02-11T13:30:25.774Z,3120
2023-02-11T13:31:27.478Z,3156
2023-02-11T13:32:28.537Z,3204
2023-02-11T13:33:29.225Z,3236
2023-02-11T13:34:29.900Z,3268
2023-02-11T13:35:30.467Z,3320
2023-02-11T13:36:30.998Z,3400
2023-02-11T13:37:31.569Z,3468
2023-02-11T13:38:32.133Z,3592
2023-02-11T13:39:32.688Z,3784
2023-02-11T13:40:33.209Z,4252
2023-02-11T13:41:34.712Z,5024
2023-02-11T13:42:35.209Z,6140
2023-02-11T13:43:35.757Z,9092
2023-02-11T13:44:36.349Z,13080
2023-02-11T13:45:36.981Z,15168
2023-02-11T13:46:37.443Z,16096
2023-02-11T13:47:37.961Z,16864
2023-02-11T13:48:39.256Z,17440
2023-02-11T13:49:39.807Z,18336
2023-02-11T13:50:40.694Z,18880
2023-02-11T13:51:41.741Z,19232
2023-02-11T13:52:42.279Z,19680
2023-02-11T13:53:42.763Z,19744
2023-02-11T13:54:43.350Z,18944
2023-02-11T13:55:43.911Z,16640
2023-02-11T13:56:44.462Z,13904
2023-02-11T13:57:44.955Z,12692
2023-02-11T13:58:45.962Z,12052
2023-02-11T13:59:46.594Z,12052
2023-02-11T14:00:47.113Z,12568
2023-02-11T14:01:48.458Z,12376
2023-02-11T14:02:49.157Z,12636
2023-02-11T14:03:49.634Z,12884
2023-02-11T14:04:50.203Z,12476
2023-02-11T14:05:50.747Z,11820
2023-02-11T14:06:51.977Z,11432
2023-02-11T14:07:52.511Z,10568
2023-02-11T14:08:53.041Z,10988
2023-02-11T14:10:24.165Z,11476
2023-02-11T14:11:25.483Z,11488
2023-02-11T14:12:26.044Z,10888
2023-02-11T14:13:26.601Z,9788
2023-02-11T14:14:27.048Z,8732
2023-02-11T14:15:27.612Z,8188
2023-02-11T14:16:37.329Z,7836
2023-02-11T14:17:29.532Z,7648
2023-02-11T14:18:30.021Z,7548
2023-02-11T14:19:30.619Z,7308
2023-02-11T14:20:31.151Z,7144
2023-02-11T14:21:32.570Z,6552
2023-02-11T14:22:33.113Z,6476
2023-02-11T14:23:33.781Z,6400
2023-02-11T14:24:34.418Z,6208
2023-02-11T14:25:35.046Z,5884
2023-02-11T14:26:35.613Z,6012